Terminal Aerodrome Forecast
Issued by NWS Wilmington, OH

Current Version | Previous Version | Graphics & Text | Print | Product List | Glossary On
Versions: 1 2 3 4 5 6 7 8 9 10 11 12 13 14 15 16 17 18 19 20 21
000
FTUS41 KILN 220100 AAA
TAFCMH
TAF AMD
KCMH 220133Z 2202/2224 00000KT P6SM BKN012
     FM220200 00000KT P6SM SCT012 BKN090
     FM220500 23004KT 5SM -SHRA VCTS BKN050CB
     FM220900 23004KT 5SM -SHRA BR SCT012 BKN035
     FM221200 23005KT P6SM VCSH BKN012
     FM221500 23007KT P6SM -SHRA VCTS BKN022CB
     FM221800 25008KT P6SM BKN035=

USA.gov is the U.S. government's official web portal to all federal, state and local government web resources and services.